Fruitland, NM (87416)

8:36 AM MDT on July 24, 2014 (GMT -0600)
Four Corners Regional (KFMN) Elev 5502 ft | 36.74 °N, 108.23 °W | Change Station

Current weather conditions updated 43 minutes ago

Clear
Clear
72 °F
Feels Like 72 °F
N
10
Wind Variable Wind from East

Today is forecast to be Cooler than yesterday.

Today
High -- | Low -- °F
--% Chance of Precip.
Yesterday
High -- | Low -- °F
Precip. -- in
6:13 AM 8:26 PM
Waning Crescent, 5% visible
Pressure 30.09 in
Visibility 10.0 miles
Clouds Clear
Dew Point 51 °F
Humidity 48%
Rainfall 0.00 in
Snow Depth Not available.
UV 1 out of 12
Pollen 3.10 out of 12
Air Quality Not available.
Flu Activity Not available.
METAR KFMN 241353Z 08009KT 10SM CLR 22/11 A3031 RMK AO2 SLP189 T02220106

More Conditions Fewer Conditions

Pressure 30.09 in
Visibility 10.0 miles
Clouds Clear
Dew Point 51 °F
Humidity 48%
Rainfall 0.00 in
Snow Depth Not available.
UV 1 out of 12
Pollen 3.10 out of 12
Air Quality Not available.
Flu Activity Not available.
METAR KFMN 241353Z 08009KT 10SM CLR 22/11 A3031 RMK AO2 SLP189 T02220106

More Conditions Fewer Conditions

10-Day Weather Forecast

Almanac

Astronomy

Jul. 24, 2014 Rise Set
Actual Time 6:13 AM MDT 8:26 PM MDT
Civil Twilight 5:43 AM MDT 8:55 PM MDT
Nautical Twilight 5:08 AM MDT 9:31 PM MDT
Astronomical Twilight 4:28 AM MDT 10:10 PM MDT
Moon 4:23 AM MDT 6:44 PM MDT
Length of Visible Light 15h 11m
Length of Day
14h 13m
Tomorrow will be 1m 32s shorter.
Waning Crescent, 5% of the Moon is Illuminated
Today
Waning Crescent
Jul 26
New
Aug 3
First Quarter
Aug 10
Full
Aug 17
Last Quarter

Today's Extremes

State Highs State Lows

Community

WunderPhotos

Upload Photos

1,737,023 photos uploaded!

Nearby

Snow Depth

Station Depth Elevation
Chamita 0 in 8400 ft
Rice Park 0 in 8460 ft
Bateman 0 in 9300 ft
Hopewell 0 in 10000 ft
Santa Fe 0 in 11445 ft

Earthquake Activity

City Distance Mag. Time & Date
No recent earthquake activity has been reported nearby.
Minimum magnitude displayed is 2.5.

Coastal Water Temperatures

Place Temperature
No Stations Reporting

Nearby Weather Stations

Station Location Temp. Heat Index Dew Point Humidity Wind Precip. Elev Updated Type
Butler and 23rd Street, Farmington, NM 75.0 °F 78 °F 51 °F 43% ENE  at  8.0 mph 0.00 in / hr 5500 ft 8:36 AM MDT Rapid Fire
8 miles North of Farmington, NM, La Plata, NM 78.5 °F 79 °F 50 °F 37% East  at  4.0 mph 0.00 in / hr 5663 ft 8:31 AM MDT Normal
La Plata River, La Plata, NM 73.0 °F 77 °F 53 °F 49% SSE  at  0.0 mph 0.00 in / hr 5587 ft 8:36 AM MDT Rapid Fire
Crouch Mesa, Aztec, NM 78.3 °F 79 °F 53 °F 42% East  at  9.2 mph 0.00 in / hr 5876 ft 8:36 AM MDT Rapid Fire

Show More Stations Show Fewer Stations